sensor_id;sensor_type;location;lat;lon;timestamp;P1;durP1;ratioP1;P2;durP2;ratioP2
5225;SDS011;2632;51.666;7.146;2024-02-23T00:00:01;0.60;;;0.60;;
5225;SDS011;2632;51.666;7.146;2024-02-23T00:02:31;0.60;;;0.60;;
5225;SDS011;2632;51.666;7.146;2024-02-23T00:04:58;1.43;;;0.57;;
5225;SDS011;2632;51.666;7.146;2024-02-23T00:07:25;0.60;;;0.60;;
5225;SDS011;2632;51.666;7.146;2024-02-23T00:09:51;0.50;;;0.50;;
5225;SDS011;2632;51.666;7.146;2024-02-23T00:12:18;0.60;;;0.60;;
5225;SDS011;2632;51.666;7.146;2024-02-23T00:14:45;2.93;;;0.67;;
5225;SDS011;2632;51.666;7.146;2024-02-23T00:17:12;1.43;;;0.77;;
5225;SDS011;2632;51.666;7.146;2024-02-23T00:19:38;1.07;;;0.70;;
5225;SDS011;2632;51.666;7.146;2024-02-23T00:22:05;1.53;;;0.73;;
5225;SDS011;2632;51.666;7.146;2024-02-23T00:24:34;0.80;;;0.80;;
5225;SDS011;2632;51.666;7.146;2024-02-23T00:27:02;1.10;;;1.10;;
5225;SDS011;2632;51.666;7.146;2024-02-23T00:29:29;1.83;;;0.90;;
5225;SDS011;2632;51.666;7.146;2024-02-23T00:31:55;0.87;;;0.87;;
5225;SDS011;2632;51.666;7.146;2024-02-23T00:34:22;1.77;;;1.03;;
5225;SDS011;2632;51.666;7.146;2024-02-23T00:36:49;0.77;;;0.77;;
5225;SDS011;2632;51.666;7.146;2024-02-23T00:39:15;1.37;;;0.87;;
5225;SDS011;2632;51.666;7.146;2024-02-23T00:41:42;1.23;;;0.93;;
5225;SDS011;2632;51.666;7.146;2024-02-23T00:44:09;0.80;;;0.70;;
5225;SDS011;2632;51.666;7.146;2024-02-23T00:46:36;0.80;;;0.63;;
5225;SDS011;2632;51.666;7.146;2024-02-23T00:49:02;0.50;;;0.50;;
5225;SDS011;2632;51.666;7.146;2024-02-23T00:51:29;0.70;;;0.60;;
5225;SDS011;2632;51.666;7.146;2024-02-23T00:53:56;0.50;;;0.47;;
5225;SDS011;2632;51.666;7.146;2024-02-23T00:56:22;1.27;;;0.67;;
5225;SDS011;2632;51.666;7.146;2024-02-23T00:59:00;1.53;;;0.63;;
5225;SDS011;2632;51.666;7.146;2024-02-23T01:01:27;1.63;;;0.80;;
5225;SDS011;2632;51.666;7.146;2024-02-23T01:03:54;1.70;;;0.90;;
5225;SDS011;2632;51.666;7.146;2024-02-23T01:06:21;1.10;;;1.00;;
5225;SDS011;2632;51.666;7.146;2024-02-23T01:08:48;1.77;;;1.27;;
5225;SDS011;2632;51.666;7.146;2024-02-23T01:11:14;1.40;;;1.30;;
5225;SDS011;2632;51.666;7.146;2024-02-23T01:13:41;3.80;;;2.10;;
5225;SDS011;2632;51.666;7.146;2024-02-23T01:16:08;2.73;;;2.23;;
5225;SDS011;2632;51.666;7.146;2024-02-23T01:18:35;4.90;;;2.20;;
5225;SDS011;2632;51.666;7.146;2024-02-23T01:21:01;5.40;;;3.17;;
5225;SDS011;2632;51.666;7.146;2024-02-23T01:23:28;4.03;;;3.20;;
5225;SDS011;2632;51.666;7.146;2024-02-23T01:25:55;4.13;;;2.80;;
5225;SDS011;2632;51.666;7.146;2024-02-23T01:28:21;4.20;;;3.07;;
5225;SDS011;2632;51.666;7.146;2024-02-23T01:30:48;2.97;;;2.33;;
5225;SDS011;2632;51.666;7.146;2024-02-23T01:33:15;2.90;;;2.33;;
5225;SDS011;2632;51.666;7.146;2024-02-23T01:35:41;4.20;;;2.40;;
5225;SDS011;2632;51.666;7.146;2024-02-23T01:38:08;5.40;;;2.70;;
5225;SDS011;2632;51.666;7.146;2024-02-23T01:40:35;5.60;;;2.60;;
5225;SDS011;2632;51.666;7.146;2024-02-23T01:43:03;4.20;;;2.23;;
5225;SDS011;2632;51.666;7.146;2024-02-23T01:45:30;6.27;;;2.63;;
5225;SDS011;2632;51.666;7.146;2024-02-23T01:47:58;2.70;;;2.30;;
5225;SDS011;2632;51.666;7.146;2024-02-23T01:50:26;3.33;;;2.10;;
5225;SDS011;2632;51.666;7.146;2024-02-23T01:52:54;4.00;;;2.00;;
5225;SDS011;2632;51.666;7.146;2024-02-23T01:55:25;2.10;;;1.80;;
5225;SDS011;2632;51.666;7.146;2024-02-23T01:57:52;2.53;;;1.20;;
5225;SDS011;2632;51.666;7.146;2024-02-23T02:00:20;2.43;;;1.60;;
5225;SDS011;2632;51.666;7.146;2024-02-23T02:02:47;3.20;;;1.57;;
5225;SDS011;2632;51.666;7.146;2024-02-23T02:05:15;2.40;;;1.40;;
5225;SDS011;2632;51.666;7.146;2024-02-23T02:07:41;1.63;;;1.30;;
5225;SDS011;2632;51.666;7.146;2024-02-23T02:10:09;1.50;;;1.23;;
5225;SDS011;2632;51.666;7.146;2024-02-23T02:12:36;9.20;;;0.97;;
5225;SDS011;2632;51.666;7.146;2024-02-23T02:15:03;1.30;;;1.20;;
5225;SDS011;2632;51.666;7.146;2024-02-23T02:17:30;1.10;;;1.00;;
5225;SDS011;2632;51.666;7.146;2024-02-23T02:20:02;2.60;;;1.30;;
5225;SDS011;2632;51.666;7.146;2024-02-23T02:22:34;1.33;;;1.23;;
5225;SDS011;2632;51.666;7.146;2024-02-23T02:25:00;3.23;;;1.00;;
5225;SDS011;2632;51.666;7.146;2024-02-23T02:27:27;2.97;;;1.20;;
5225;SDS011;2632;51.666;7.146;2024-02-23T02:29:54;2.87;;;1.33;;
5225;SDS011;2632;51.666;7.146;2024-02-23T02:32:20;2.43;;;1.23;;
5225;SDS011;2632;51.666;7.146;2024-02-23T02:34:47;2.73;;;1.37;;
5225;SDS011;2632;51.666;7.146;2024-02-23T02:37:14;2.37;;;1.40;;
5225;SDS011;2632;51.666;7.146;2024-02-23T02:39:41;4.10;;;1.40;;
5225;SDS011;2632;51.666;7.146;2024-02-23T02:42:08;2.90;;;1.13;;
5225;SDS011;2632;51.666;7.146;2024-02-23T02:44:34;5.87;;;1.10;;
5225;SDS011;2632;51.666;7.146;2024-02-23T02:47:01;7.10;;;1.13;;
5225;SDS011;2632;51.666;7.146;2024-02-23T02:49:27;6.63;;;2.10;;
5225;SDS011;2632;51.666;7.146;2024-02-23T02:51:54;3.20;;;1.10;;
5225;SDS011;2632;51.666;7.146;2024-02-23T02:54:21;1.73;;;1.30;;
5225;SDS011;2632;51.666;7.146;2024-02-23T02:56:47;3.13;;;1.20;;
5225;SDS011;2632;51.666;7.146;2024-02-23T02:59:16;1.83;;;1.40;;
5225;SDS011;2632;51.666;7.146;2024-02-23T03:01:44;4.10;;;1.50;;
5225;SDS011;2632;51.666;7.146;2024-02-23T03:04:13;2.83;;;1.50;;
5225;SDS011;2632;51.666;7.146;2024-02-23T03:06:39;5.43;;;1.30;;
5225;SDS011;2632;51.666;7.146;2024-02-23T03:09:06;3.90;;;1.00;;
5225;SDS011;2632;51.666;7.146;2024-02-23T03:11:33;5.40;;;1.87;;
5225;SDS011;2632;51.666;7.146;2024-02-23T03:14:00;2.53;;;1.33;;
5225;SDS011;2632;51.666;7.146;2024-02-23T03:16:27;4.10;;;1.30;;
5225;SDS011;2632;51.666;7.146;2024-02-23T03:18:55;2.80;;;1.13;;
5225;SDS011;2632;51.666;7.146;2024-02-23T03:21:21;6.10;;;1.43;;
5225;SDS011;2632;51.666;7.146;2024-02-23T03:23:48;1.20;;;1.10;;
5225;SDS011;2632;51.666;7.146;2024-02-23T03:26:15;6.73;;;1.00;;
5225;SDS011;2632;51.666;7.146;2024-02-23T03:28:43;1.63;;;1.10;;
5225;SDS011;2632;51.666;7.146;2024-02-23T03:31:10;5.80;;;1.00;;
5225;SDS011;2632;51.666;7.146;2024-02-23T03:33:36;2.40;;;0.97;;
5225;SDS011;2632;51.666;7.146;2024-02-23T03:36:04;2.43;;;0.97;;
5225;SDS011;2632;51.666;7.146;2024-02-23T03:38:30;4.20;;;1.13;;
5225;SDS011;2632;51.666;7.146;2024-02-23T03:40:58;3.03;;;1.00;;
5225;SDS011;2632;51.666;7.146;2024-02-23T03:43:25;1.57;;;0.90;;
5225;SDS011;2632;51.666;7.146;2024-02-23T03:45:51;5.50;;;1.30;;
5225;SDS011;2632;51.666;7.146;2024-02-23T03:48:18;4.00;;;1.47;;
5225;SDS011;2632;51.666;7.146;2024-02-23T03:50:45;2.23;;;1.10;;
5225;SDS011;2632;51.666;7.146;2024-02-23T03:53:12;6.20;;;1.43;;
5225;SDS011;2632;51.666;7.146;2024-02-23T03:55:39;1.50;;;0.97;;
5225;SDS011;2632;51.666;7.146;2024-02-23T03:58:05;2.63;;;1.20;;
5225;SDS011;2632;51.666;7.146;2024-02-23T04:00:32;3.07;;;1.30;;
5225;SDS011;2632;51.666;7.146;2024-02-23T04:02:59;3.50;;;1.47;;
5225;SDS011;2632;51.666;7.146;2024-02-23T04:05:25;2.53;;;1.30;;
5225;SDS011;2632;51.666;7.146;2024-02-23T04:07:52;4.23;;;1.20;;
5225;SDS011;2632;51.666;7.146;2024-02-23T04:10:19;8.80;;;1.50;;
5225;SDS011;2632;51.666;7.146;2024-02-23T04:12:46;4.23;;;1.40;;
5225;SDS011;2632;51.666;7.146;2024-02-23T04:15:13;3.10;;;1.60;;
5225;SDS011;2632;51.666;7.146;2024-02-23T04:17:40;3.93;;;1.40;;
5225;SDS011;2632;51.666;7.146;2024-02-23T04:20:07;2.33;;;1.30;;
5225;SDS011;2632;51.666;7.146;2024-02-23T04:22:36;2.40;;;0.93;;
5225;SDS011;2632;51.666;7.146;2024-02-23T04:25:03;4.63;;;1.07;;
5225;SDS011;2632;51.666;7.146;2024-02-23T04:27:31;2.60;;;1.20;;
5225;SDS011;2632;51.666;7.146;2024-02-23T04:29:57;5.73;;;1.10;;
5225;SDS011;2632;51.666;7.146;2024-02-23T04:32:24;2.63;;;1.10;;
5225;SDS011;2632;51.666;7.146;2024-02-23T04:34:51;4.40;;;1.10;;
5225;SDS011;2632;51.666;7.146;2024-02-23T04:37:18;4.67;;;1.43;;
5225;SDS011;2632;51.666;7.146;2024-02-23T04:39:44;4.20;;;1.20;;
5225;SDS011;2632;51.666;7.146;2024-02-23T04:42:11;1.90;;;1.00;;
5225;SDS011;2632;51.666;7.146;2024-02-23T04:44:38;4.60;;;1.20;;
5225;SDS011;2632;51.666;7.146;2024-02-23T04:47:04;4.83;;;1.00;;
5225;SDS011;2632;51.666;7.146;2024-02-23T04:49:32;4.23;;;1.03;;
5225;SDS011;2632;51.666;7.146;2024-02-23T04:51:59;3.47;;;1.40;;
5225;SDS011;2632;51.666;7.146;2024-02-23T04:54:25;1.40;;;1.07;;
5225;SDS011;2632;51.666;7.146;2024-02-23T04:56:52;1.43;;;1.00;;
5225;SDS011;2632;51.666;7.146;2024-02-23T04:59:18;3.67;;;1.20;;
5225;SDS011;2632;51.666;7.146;2024-02-23T05:01:45;4.20;;;0.80;;
5225;SDS011;2632;51.666;7.146;2024-02-23T05:04:12;3.53;;;0.87;;
5225;SDS011;2632;51.666;7.146;2024-02-23T05:06:38;2.27;;;0.90;;
5225;SDS011;2632;51.666;7.146;2024-02-23T05:09:05;2.90;;;1.23;;
5225;SDS011;2632;51.666;7.146;2024-02-23T05:11:35;5.70;;;1.07;;
5225;SDS011;2632;51.666;7.146;2024-02-23T05:14:02;3.70;;;1.13;;
5225;SDS011;2632;51.666;7.146;2024-02-23T05:16:28;1.03;;;0.70;;
5225;SDS011;2632;51.666;7.146;2024-02-23T05:18:55;1.73;;;1.10;;
5225;SDS011;2632;51.666;7.146;2024-02-23T05:21:21;2.10;;;0.90;;
5225;SDS011;2632;51.666;7.146;2024-02-23T05:23:48;3.30;;;1.07;;
5225;SDS011;2632;51.666;7.146;2024-02-23T05:26:15;4.13;;;0.80;;
5225;SDS011;2632;51.666;7.146;2024-02-23T05:28:41;3.20;;;1.10;;
5225;SDS011;2632;51.666;7.146;2024-02-23T05:31:09;2.50;;;0.97;;
5225;SDS011;2632;51.666;7.146;2024-02-23T05:33:36;2.93;;;1.17;;
5225;SDS011;2632;51.666;7.146;2024-02-23T05:36:04;3.30;;;1.00;;
5225;SDS011;2632;51.666;7.146;2024-02-23T05:38:31;3.60;;;0.90;;
5225;SDS011;2632;51.666;7.146;2024-02-23T05:40:58;2.80;;;1.00;;
5225;SDS011;2632;51.666;7.146;2024-02-23T05:43:25;1.83;;;1.23;;
5225;SDS011;2632;51.666;7.146;2024-02-23T05:45:51;3.10;;;1.00;;
5225;SDS011;2632;51.666;7.146;2024-02-23T05:48:18;4.70;;;1.50;;
5225;SDS011;2632;51.666;7.146;2024-02-23T05:50:45;4.73;;;1.37;;
5225;SDS011;2632;51.666;7.146;2024-02-23T05:53:12;5.00;;;1.13;;
5225;SDS011;2632;51.666;7.146;2024-02-23T05:55:39;2.77;;;0.87;;
5225;SDS011;2632;51.666;7.146;2024-02-23T05:58:05;4.70;;;0.97;;
5225;SDS011;2632;51.666;7.146;2024-02-23T06:00:32;4.27;;;1.40;;
5225;SDS011;2632;51.666;7.146;2024-02-23T06:02:59;2.83;;;0.90;;
5225;SDS011;2632;51.666;7.146;2024-02-23T06:05:25;5.73;;;1.03;;
5225;SDS011;2632;51.666;7.146;2024-02-23T06:07:54;4.00;;;1.10;;
5225;SDS011;2632;51.666;7.146;2024-02-23T06:10:21;2.93;;;1.20;;
5225;SDS011;2632;51.666;7.146;2024-02-23T06:12:48;2.57;;;0.77;;
5225;SDS011;2632;51.666;7.146;2024-02-23T06:15:14;1.90;;;0.73;;
5225;SDS011;2632;51.666;7.146;2024-02-23T06:17:41;5.53;;;0.97;;
5225;SDS011;2632;51.666;7.146;2024-02-23T06:20:08;9.03;;;1.20;;
5225;SDS011;2632;51.666;7.146;2024-02-23T06:22:35;3.17;;;1.17;;
5225;SDS011;2632;51.666;7.146;2024-02-23T06:25:02;13.67;;;1.40;;
5225;SDS011;2632;51.666;7.146;2024-02-23T06:27:29;3.70;;;1.07;;
5225;SDS011;2632;51.666;7.146;2024-02-23T06:29:56;4.83;;;1.00;;
5225;SDS011;2632;51.666;7.146;2024-02-23T06:32:22;8.53;;;1.07;;
5225;SDS011;2632;51.666;7.146;2024-02-23T06:34:49;1.83;;;1.00;;
5225;SDS011;2632;51.666;7.146;2024-02-23T06:37:16;2.60;;;1.00;;
5225;SDS011;2632;51.666;7.146;2024-02-23T06:39:42;2.83;;;1.10;;
5225;SDS011;2632;51.666;7.146;2024-02-23T06:42:10;3.47;;;1.10;;
5225;SDS011;2632;51.666;7.146;2024-02-23T06:44:36;3.63;;;1.13;;
5225;SDS011;2632;51.666;7.146;2024-02-23T06:47:03;5.43;;;1.20;;
5225;SDS011;2632;51.666;7.146;2024-02-23T06:49:30;3.50;;;1.20;;
5225;SDS011;2632;51.666;7.146;2024-02-23T06:51:57;3.47;;;1.30;;
5225;SDS011;2632;51.666;7.146;2024-02-23T06:54:23;7.90;;;1.10;;
5225;SDS011;2632;51.666;7.146;2024-02-23T06:56:50;3.80;;;0.90;;
5225;SDS011;2632;51.666;7.146;2024-02-23T06:59:17;12.20;;;1.20;;
5225;SDS011;2632;51.666;7.146;2024-02-23T07:01:49;2.97;;;1.30;;
5225;SDS011;2632;51.666;7.146;2024-02-23T07:04:17;2.97;;;0.83;;
5225;SDS011;2632;51.666;7.146;2024-02-23T07:06:44;2.97;;;1.60;;
5225;SDS011;2632;51.666;7.146;2024-02-23T07:09:11;4.67;;;1.07;;
5225;SDS011;2632;51.666;7.146;2024-02-23T07:11:38;2.30;;;1.00;;
5225;SDS011;2632;51.666;7.146;2024-02-23T07:14:05;3.60;;;1.00;;
5225;SDS011;2632;51.666;7.146;2024-02-23T07:16:33;2.97;;;1.03;;
5225;SDS011;2632;51.666;7.146;2024-02-23T07:19:03;5.50;;;1.23;;
5225;SDS011;2632;51.666;7.146;2024-02-23T07:21:30;3.27;;;1.00;;
5225;SDS011;2632;51.666;7.146;2024-02-23T07:23:56;3.10;;;1.10;;
5225;SDS011;2632;51.666;7.146;2024-02-23T07:26:23;7.30;;;1.20;;
5225;SDS011;2632;51.666;7.146;2024-02-23T07:28:49;5.33;;;1.47;;
5225;SDS011;2632;51.666;7.146;2024-02-23T07:31:16;4.97;;;1.20;;
5225;SDS011;2632;51.666;7.146;2024-02-23T07:33:43;3.77;;;0.90;;
5225;SDS011;2632;51.666;7.146;2024-02-23T07:36:16;4.70;;;1.17;;
5225;SDS011;2632;51.666;7.146;2024-02-23T07:38:43;2.67;;;0.83;;
5225;SDS011;2632;51.666;7.146;2024-02-23T07:41:11;2.30;;;1.30;;
5225;SDS011;2632;51.666;7.146;2024-02-23T07:43:39;4.00;;;1.00;;
5225;SDS011;2632;51.666;7.146;2024-02-23T07:46:06;4.33;;;1.00;;
5225;SDS011;2632;51.666;7.146;2024-02-23T07:48:35;2.17;;;1.20;;
5225;SDS011;2632;51.666;7.146;2024-02-23T07:51:03;2.57;;;1.13;;
5225;SDS011;2632;51.666;7.146;2024-02-23T07:53:31;4.07;;;0.93;;
5225;SDS011;2632;51.666;7.146;2024-02-23T07:55:59;2.60;;;1.63;;
5225;SDS011;2632;51.666;7.146;2024-02-23T07:58:28;5.03;;;1.00;;
5225;SDS011;2632;51.666;7.146;2024-02-23T08:00:54;5.07;;;1.70;;
5225;SDS011;2632;51.666;7.146;2024-02-23T08:03:21;3.87;;;1.10;;
5225;SDS011;2632;51.666;7.146;2024-02-23T08:05:48;1.80;;;1.00;;
5225;SDS011;2632;51.666;7.146;2024-02-23T08:08:14;4.73;;;1.00;;
5225;SDS011;2632;51.666;7.146;2024-02-23T08:10:41;4.30;;;1.10;;
5225;SDS011;2632;51.666;7.146;2024-02-23T08:13:08;5.00;;;1.10;;
5225;SDS011;2632;51.666;7.146;2024-02-23T08:15:36;7.87;;;1.17;;
5225;SDS011;2632;51.666;7.146;2024-02-23T08:18:03;3.30;;;0.90;;
5225;SDS011;2632;51.666;7.146;2024-02-23T08:20:30;4.77;;;0.80;;
5225;SDS011;2632;51.666;7.146;2024-02-23T08:22:57;2.30;;;1.00;;
5225;SDS011;2632;51.666;7.146;2024-02-23T08:25:23;2.50;;;1.00;;
5225;SDS011;2632;51.666;7.146;2024-02-23T08:27:50;4.77;;;1.63;;
5225;SDS011;2632;51.666;7.146;2024-02-23T08:30:17;5.33;;;1.27;;
5225;SDS011;2632;51.666;7.146;2024-02-23T08:32:46;2.70;;;1.37;;
5225;SDS011;2632;51.666;7.146;2024-02-23T08:35:13;3.27;;;1.07;;
5225;SDS011;2632;51.666;7.146;2024-02-23T08:37:41;2.00;;;0.80;;
5225;SDS011;2632;51.666;7.146;2024-02-23T08:40:09;3.40;;;1.30;;
5225;SDS011;2632;51.666;7.146;2024-02-23T08:42:36;2.50;;;0.90;;
5225;SDS011;2632;51.666;7.146;2024-02-23T08:45:03;1.17;;;1.00;;
5225;SDS011;2632;51.666;7.146;2024-02-23T08:47:30;5.13;;;1.10;;
5225;SDS011;2632;51.666;7.146;2024-02-23T08:50:02;5.70;;;1.67;;
5225;SDS011;2632;51.666;7.146;2024-02-23T08:52:29;2.07;;;0.83;;
5225;SDS011;2632;51.666;7.146;2024-02-23T08:54:56;2.83;;;2.63;;
5225;SDS011;2632;51.666;7.146;2024-02-23T08:57:23;2.47;;;0.77;;
5225;SDS011;2632;51.666;7.146;2024-02-23T08:59:49;2.93;;;0.90;;
5225;SDS011;2632;51.666;7.146;2024-02-23T09:02:16;2.50;;;0.83;;
5225;SDS011;2632;51.666;7.146;2024-02-23T09:04:43;1.43;;;1.23;;
5225;SDS011;2632;51.666;7.146;2024-02-23T09:07:11;3.37;;;1.10;;
5225;SDS011;2632;51.666;7.146;2024-02-23T09:09:39;2.20;;;0.70;;
5225;SDS011;2632;51.666;7.146;2024-02-23T09:12:06;1.87;;;1.00;;
5225;SDS011;2632;51.666;7.146;2024-02-23T09:14:36;3.43;;;0.80;;
5225;SDS011;2632;51.666;7.146;2024-02-23T09:17:07;2.33;;;0.73;;
5225;SDS011;2632;51.666;7.146;2024-02-23T09:19:35;2.20;;;0.70;;
5225;SDS011;2632;51.666;7.146;2024-02-23T09:22:02;3.83;;;0.90;;
5225;SDS011;2632;51.666;7.146;2024-02-23T09:24:29;3.03;;;1.00;;
5225;SDS011;2632;51.666;7.146;2024-02-23T09:26:56;3.23;;;1.20;;
5225;SDS011;2632;51.666;7.146;2024-02-23T09:29:23;4.33;;;0.87;;
5225;SDS011;2632;51.666;7.146;2024-02-23T09:31:49;6.27;;;1.10;;
5225;SDS011;2632;51.666;7.146;2024-02-23T09:34:16;3.57;;;0.93;;
5225;SDS011;2632;51.666;7.146;2024-02-23T09:36:43;4.80;;;1.17;;
5225;SDS011;2632;51.666;7.146;2024-02-23T09:39:14;3.73;;;1.10;;
5225;SDS011;2632;51.666;7.146;2024-02-23T09:41:40;3.03;;;0.80;;
5225;SDS011;2632;51.666;7.146;2024-02-23T09:44:08;7.40;;;1.27;;
5225;SDS011;2632;51.666;7.146;2024-02-23T09:46:39;2.80;;;0.90;;
5225;SDS011;2632;51.666;7.146;2024-02-23T09:49:06;3.60;;;0.93;;
5225;SDS011;2632;51.666;7.146;2024-02-23T09:51:35;3.40;;;0.90;;
5225;SDS011;2632;51.666;7.146;2024-02-23T09:54:02;2.90;;;1.13;;
5225;SDS011;2632;51.666;7.146;2024-02-23T09:56:29;2.83;;;0.87;;
5225;SDS011;2632;51.666;7.146;2024-02-23T09:58:58;4.30;;;1.20;;
5225;SDS011;2632;51.666;7.146;2024-02-23T10:01:28;2.33;;;0.80;;
5225;SDS011;2632;51.666;7.146;2024-02-23T10:04:02;5.70;;;2.00;;
5225;SDS011;2632;51.666;7.146;2024-02-23T10:06:32;1.90;;;1.00;;
5225;SDS011;2632;51.666;7.146;2024-02-23T10:08:59;2.30;;;1.03;;
5225;SDS011;2632;51.666;7.146;2024-02-23T10:11:26;4.53;;;1.60;;
5225;SDS011;2632;51.666;7.146;2024-02-23T10:13:52;5.70;;;1.30;;
5225;SDS011;2632;51.666;7.146;2024-02-23T10:16:20;4.07;;;0.80;;
5225;SDS011;2632;51.666;7.146;2024-02-23T10:18:48;12.03;;;1.10;;
5225;SDS011;2632;51.666;7.146;2024-02-23T10:21:15;4.17;;;1.00;;
5225;SDS011;2632;51.666;7.146;2024-02-23T10:23:45;1.63;;;0.73;;
5225;SDS011;2632;51.666;7.146;2024-02-23T10:26:14;5.27;;;0.70;;
5225;SDS011;2632;51.666;7.146;2024-02-23T10:28:45;3.57;;;0.90;;
5225;SDS011;2632;51.666;7.146;2024-02-23T10:31:13;2.23;;;0.93;;
5225;SDS011;2632;51.666;7.146;2024-02-23T10:33:39;3.57;;;0.93;;
5225;SDS011;2632;51.666;7.146;2024-02-23T10:36:07;5.30;;;1.43;;
5225;SDS011;2632;51.666;7.146;2024-02-23T10:38:34;2.27;;;0.83;;
5225;SDS011;2632;51.666;7.146;2024-02-23T10:41:04;5.17;;;1.00;;
5225;SDS011;2632;51.666;7.146;2024-02-23T10:43:33;3.00;;;0.97;;
5225;SDS011;2632;51.666;7.146;2024-02-23T10:46:07;5.57;;;0.90;;
5225;SDS011;2632;51.666;7.146;2024-02-23T10:48:39;3.13;;;1.00;;
5225;SDS011;2632;51.666;7.146;2024-02-23T10:51:07;3.43;;;1.00;;
5225;SDS011;2632;51.666;7.146;2024-02-23T10:53:36;1.60;;;1.00;;
5225;SDS011;2632;51.666;7.146;2024-02-23T10:56:04;2.27;;;0.70;;
5225;SDS011;2632;51.666;7.146;2024-02-23T10:58:33;4.07;;;0.97;;
5225;SDS011;2632;51.666;7.146;2024-02-23T11:01:03;1.90;;;0.70;;
5225;SDS011;2632;51.666;7.146;2024-02-23T11:03:33;5.50;;;0.80;;
5225;SDS011;2632;51.666;7.146;2024-02-23T11:06:05;6.63;;;1.20;;
5225;SDS011;2632;51.666;7.146;2024-02-23T11:08:32;2.40;;;0.90;;
5225;SDS011;2632;51.666;7.146;2024-02-23T11:11:06;1.43;;;0.70;;
5225;SDS011;2632;51.666;7.146;2024-02-23T11:13:34;1.30;;;0.60;;
5225;SDS011;2632;51.666;7.146;2024-02-23T11:16:06;2.93;;;0.80;;
5225;SDS011;2632;51.666;7.146;2024-02-23T11:18:35;1.20;;;0.73;;
5225;SDS011;2632;51.666;7.146;2024-02-23T11:21:03;2.83;;;0.70;;
5225;SDS011;2632;51.666;7.146;2024-02-23T11:23:44;4.93;;;1.03;;
5225;SDS011;2632;51.666;7.146;2024-02-23T11:26:15;4.73;;;0.93;;
5225;SDS011;2632;51.666;7.146;2024-02-23T11:28:48;6.90;;;1.00;;
5225;SDS011;2632;51.666;7.146;2024-02-23T11:31:24;2.80;;;1.00;;
5225;SDS011;2632;51.666;7.146;2024-02-23T11:33:55;4.23;;;0.80;;
5225;SDS011;2632;51.666;7.146;2024-02-23T11:36:24;2.40;;;0.70;;
5225;SDS011;2632;51.666;7.146;2024-02-23T11:38:56;2.07;;;0.80;;
5225;SDS011;2632;51.666;7.146;2024-02-23T11:41:23;2.60;;;1.00;;
5225;SDS011;2632;51.666;7.146;2024-02-23T11:43:51;3.20;;;1.10;;
5225;SDS011;2632;51.666;7.146;2024-02-23T11:46:22;3.67;;;1.20;;
5225;SDS011;2632;51.666;7.146;2024-02-23T11:48:49;2.30;;;0.87;;
5225;SDS011;2632;51.666;7.146;2024-02-23T11:51:23;3.00;;;1.00;;
5225;SDS011;2632;51.666;7.146;2024-02-23T11:53:52;5.67;;;1.60;;
5225;SDS011;2632;51.666;7.146;2024-02-23T11:56:22;2.40;;;0.90;;
5225;SDS011;2632;51.666;7.146;2024-02-23T11:58:48;5.83;;;1.13;;
5225;SDS011;2632;51.666;7.146;2024-02-23T12:01:15;4.80;;;1.03;;
5225;SDS011;2632;51.666;7.146;2024-02-23T12:03:42;4.47;;;1.40;;
5225;SDS011;2632;51.666;7.146;2024-02-23T12:06:10;3.40;;;1.07;;
5225;SDS011;2632;51.666;7.146;2024-02-23T12:08:37;2.17;;;0.70;;
5225;SDS011;2632;51.666;7.146;2024-02-23T12:11:05;1.40;;;0.80;;
5225;SDS011;2632;51.666;7.146;2024-02-23T12:13:38;5.23;;;1.20;;
5225;SDS011;2632;51.666;7.146;2024-02-23T12:16:06;4.23;;;1.60;;
5225;SDS011;2632;51.666;7.146;2024-02-23T12:18:34;3.80;;;1.10;;
5225;SDS011;2632;51.666;7.146;2024-02-23T12:21:04;4.47;;;1.40;;
5225;SDS011;2632;51.666;7.146;2024-02-23T12:23:39;3.07;;;0.90;;
5225;SDS011;2632;51.666;7.146;2024-02-23T12:26:06;6.43;;;1.20;;
5225;SDS011;2632;51.666;7.146;2024-02-23T12:28:34;1.00;;;0.83;;
5225;SDS011;2632;51.666;7.146;2024-02-23T12:31:01;4.30;;;1.07;;
5225;SDS011;2632;51.666;7.146;2024-02-23T12:33:33;2.90;;;1.13;;
5225;SDS011;2632;51.666;7.146;2024-02-23T12:36:02;2.87;;;0.80;;
5225;SDS011;2632;51.666;7.146;2024-02-23T12:38:30;5.20;;;1.00;;
5225;SDS011;2632;51.666;7.146;2024-02-23T12:40:57;2.63;;;1.40;;
5225;SDS011;2632;51.666;7.146;2024-02-23T12:43:25;5.53;;;1.20;;
5225;SDS011;2632;51.666;7.146;2024-02-23T12:45:52;1.50;;;0.90;;
5225;SDS011;2632;51.666;7.146;2024-02-23T12:48:20;3.43;;;1.03;;
5225;SDS011;2632;51.666;7.146;2024-02-23T12:50:47;2.60;;;0.90;;
5225;SDS011;2632;51.666;7.146;2024-02-23T12:53:34;2.20;;;1.30;;
5225;SDS011;2632;51.666;7.146;2024-02-23T12:56:10;7.50;;;0.90;;
5225;SDS011;2632;51.666;7.146;2024-02-23T12:58:38;4.80;;;1.17;;
5225;SDS011;2632;51.666;7.146;2024-02-23T13:01:06;2.70;;;1.03;;
5225;SDS011;2632;51.666;7.146;2024-02-23T13:03:34;2.40;;;1.00;;
5225;SDS011;2632;51.666;7.146;2024-02-23T13:06:02;4.57;;;0.90;;
5225;SDS011;2632;51.666;7.146;2024-02-23T13:08:29;1.53;;;0.93;;
5225;SDS011;2632;51.666;7.146;2024-02-23T13:10:56;2.43;;;1.10;;
5225;SDS011;2632;51.666;7.146;2024-02-23T13:13:23;4.13;;;1.40;;
5225;SDS011;2632;51.666;7.146;2024-02-23T13:15:51;6.07;;;1.13;;
5225;SDS011;2632;51.666;7.146;2024-02-23T13:18:19;7.50;;;1.60;;
5225;SDS011;2632;51.666;7.146;2024-02-23T13:20:46;2.17;;;1.07;;
5225;SDS011;2632;51.666;7.146;2024-02-23T13:23:13;4.37;;;0.87;;
5225;SDS011;2632;51.666;7.146;2024-02-23T13:25:42;3.50;;;1.20;;
5225;SDS011;2632;51.666;7.146;2024-02-23T13:28:09;3.90;;;1.37;;
5225;SDS011;2632;51.666;7.146;2024-02-23T13:30:36;4.87;;;1.07;;
5225;SDS011;2632;51.666;7.146;2024-02-23T13:33:03;4.13;;;1.10;;
5225;SDS011;2632;51.666;7.146;2024-02-23T13:35:31;7.80;;;1.50;;
5225;SDS011;2632;51.666;7.146;2024-02-23T13:37:58;5.03;;;1.10;;
5225;SDS011;2632;51.666;7.146;2024-02-23T13:40:25;2.90;;;1.33;;
5225;SDS011;2632;51.666;7.146;2024-02-23T13:42:52;2.60;;;0.90;;
5225;SDS011;2632;51.666;7.146;2024-02-23T13:45:19;3.50;;;1.20;;
5225;SDS011;2632;51.666;7.146;2024-02-23T13:48:02;7.23;;;1.30;;
5225;SDS011;2632;51.666;7.146;2024-02-23T13:50:29;1.40;;;0.90;;
5225;SDS011;2632;51.666;7.146;2024-02-23T13:52:57;4.73;;;1.17;;
5225;SDS011;2632;51.666;7.146;2024-02-23T13:55:23;2.77;;;1.20;;
5225;SDS011;2632;51.666;7.146;2024-02-23T13:57:50;3.33;;;1.23;;
5225;SDS011;2632;51.666;7.146;2024-02-23T14:00:17;3.70;;;1.40;;
5225;SDS011;2632;51.666;7.146;2024-02-23T14:02:45;3.37;;;1.10;;
5225;SDS011;2632;51.666;7.146;2024-02-23T14:05:13;4.97;;;1.30;;
5225;SDS011;2632;51.666;7.146;2024-02-23T14:07:41;5.70;;;1.20;;
5225;SDS011;2632;51.666;7.146;2024-02-23T14:10:08;2.10;;;1.07;;
5225;SDS011;2632;51.666;7.146;2024-02-23T14:12:35;4.50;;;0.80;;
5225;SDS011;2632;51.666;7.146;2024-02-23T14:15:02;3.13;;;1.00;;
5225;SDS011;2632;51.666;7.146;2024-02-23T14:17:31;2.23;;;1.10;;
5225;SDS011;2632;51.666;7.146;2024-02-23T14:19:58;3.90;;;1.20;;
5225;SDS011;2632;51.666;7.146;2024-02-23T14:22:25;3.50;;;1.20;;
5225;SDS011;2632;51.666;7.146;2024-02-23T14:24:54;3.33;;;0.90;;
5225;SDS011;2632;51.666;7.146;2024-02-23T14:27:20;3.57;;;1.03;;
5225;SDS011;2632;51.666;7.146;2024-02-23T14:29:47;2.50;;;1.07;;
5225;SDS011;2632;51.666;7.146;2024-02-23T14:32:15;4.03;;;1.70;;
5225;SDS011;2632;51.666;7.146;2024-02-23T14:34:43;4.27;;;1.10;;
5225;SDS011;2632;51.666;7.146;2024-02-23T14:37:10;2.47;;;1.53;;
5225;SDS011;2632;51.666;7.146;2024-02-23T14:39:36;1.13;;;0.80;;
5225;SDS011;2632;51.666;7.146;2024-02-23T14:42:03;2.73;;;0.93;;
5225;SDS011;2632;51.666;7.146;2024-02-23T14:44:30;2.30;;;1.23;;
5225;SDS011;2632;51.666;7.146;2024-02-23T14:46:57;6.10;;;0.90;;
5225;SDS011;2632;51.666;7.146;2024-02-23T14:49:24;3.57;;;1.00;;
5225;SDS011;2632;51.666;7.146;2024-02-23T14:51:50;3.47;;;1.40;;
5225;SDS011;2632;51.666;7.146;2024-02-23T14:54:17;4.47;;;1.20;;
5225;SDS011;2632;51.666;7.146;2024-02-23T14:56:44;4.97;;;1.30;;
5225;SDS011;2632;51.666;7.146;2024-02-23T14:59:11;5.63;;;1.60;;
5225;SDS011;2632;51.666;7.146;2024-02-23T15:01:38;4.10;;;1.10;;
5225;SDS011;2632;51.666;7.146;2024-02-23T15:04:07;2.90;;;1.37;;
5225;SDS011;2632;51.666;7.146;2024-02-23T15:06:34;1.70;;;0.90;;
5225;SDS011;2632;51.666;7.146;2024-02-23T15:09:04;8.97;;;1.97;;
5225;SDS011;2632;51.666;7.146;2024-02-23T15:11:31;6.27;;;1.40;;
5225;SDS011;2632;51.666;7.146;2024-02-23T15:13:58;3.50;;;1.60;;
5225;SDS011;2632;51.666;7.146;2024-02-23T15:16:25;2.77;;;1.30;;